Powell River, British Columbia

12:14 AM PDT on July 28, 2016 (GMT -0700)
Hammond St | | Change Station

Elev 98 ft 49.83 °N, 124.52 °W | Updated 4 minutes ago

Partly Cloudy
Partly Cloudy
64.5 °F
Feels Like 64.5 °F
N
0.0
Wind Variable Wind from SE
Gusts 2.0 mph

Today
High -- | Low -- °F
--% Chance of Precip.
Yesterday
High -- | Low -- °F
Precip. -- in
Pressure 30.12 in
Visibility 20.0 miles
Clouds Few 26000 ft
Dew Point 59 °F
Humidity 83%
Rainfall 0.00 in
Snow Depth Not available.
5:43 AM 9:04 PM
Waning Crescent, 35% visible
METAR CYQQ 280700Z 33011KT 20SM FEW260 18/14 A3011 RMK CI1 SLP198
Pressure 30.12 in
Visibility 20.0 miles
Clouds Few 26000 ft
Dew Point 59 °F
Humidity 83%
Rainfall 0.00 in
Snow Depth Not available.
5:43 AM 9:04 PM
Waning Crescent, 35% visible
METAR CYQQ 280700Z 33011KT 20SM FEW260 18/14 A3011 RMK CI1 SLP198

10-Day Weather Forecast

No radar image for this location.
×

Almanac

Astronomy

Jul. 28, 2016 Rise Set
Actual Time
Civil Twilight
Nautical Twilight
Astronomical Twilight
Moon
Length of Visible Light
Length of Day
Tomorrow will be .
, % of the Moon is Illuminated

Today's Extremes

Country Highs Country Lows

Community

WunderPhotos

Upload Photos

1,928,070 photos uploaded!

WunderBlog® & News

Nearby

Air Quality

  Air Quality AQ Index Pollutant
Not available.

Snow Depth

Station Depth Elevation

Earthquake Activity

City Distance Mag. Time & Date
Minimum magnitude displayed is 2.5.

Coastal Water Temperatures

Place Temperature

Stations

Nearby Weather Stations

Station Location Temp. Windchill Dew Point Humidity Wind Precip. Elev Updated Type
                   

Watches & Warnings

There are currently no watches in effect.